Dublin Express — DDSB2 — position and weather

sailwx.info

Track history (hours):
 
Tides and Currents Weather Stations Pressure Air Temp Water Temp Dewpoint Dewpoint Depression Visibility Wind Speed Wind Dir Waves Ship Positions

Dublin Express

Last reported at 2017-Oct-07 01:47 UTC. Time now 2017-Oct-18 06:10 UTC.
Position N 25°29' W 079°50'.
Warning: this ship's position is 11 days out of date.

Length 281 m; beam 32 m; draft 13 m.

MMSI: 218023000.

Date/timePositionNaut miles runAvg speedWind from/ knotsBaromVisibWave heightAir tempDewpointWater temp
2017-Oct-07 01:47N 25°29' W 079°50'519.2
2017-Oct-07 01:30N 25°34' W 079°51'1019.1
2017-Oct-07 01:00N 25°43' W 079°54'1019.6
2017-Oct-07 00:31N 25°53' W 079°57'918.5
2017-Oct-07 00:01N 26°01' W 080°02'612.2
2017-Oct-06 23:30N 26°06' W 080°06'2 2.6
2017-Oct-06 22:49N 26°04' W 080°07'0 0.0
2017-Oct-06 22:27N 26°04' W 080°07'0 0.0
2017-Oct-06 21:55N 26°04' W 080°07'0 0.0
2017-Oct-06 21:27N 26°04' W 080°07'0 0.0
2017-Oct-06 20:57N 26°04' W 080°07'0 0.0
2017-Oct-06 20:22N 26°04' W 080°07'0 0.0
2017-Oct-06 19:52N 26°04' W 080°07'0 0.0
2017-Oct-06 19:25N 26°04' W 080°07'0 0.0
2017-Oct-06 18:58N 26°04' W 080°07'0 0.0
2017-Oct-06 18:22N 26°04' W 080°07'0 0.0
2017-Oct-06 17:55N 26°04' W 080°07'0 0.0
2017-Oct-06 17:28N 26°04' W 080°07'0 0.0
2017-Oct-06 16:58N 26°04' W 080°07'0 0.0
2017-Oct-06 16:25N 26°04' W 080°07'0 0.0
2017-Oct-06 15:58N 26°04' W 080°07'0 0.0
2017-Oct-06 15:28N 26°04' W 080°07'0 0.0
2017-Oct-06 14:58N 26°04' W 080°07'0 0.0
2017-Oct-06 14:28N 26°04' W 080°07'0 0.0
2017-Oct-06 13:58N 26°04' W 080°07'0 0.0
2017-Oct-06 13:28N 26°04' W 080°07'0 0.0
2017-Oct-06 12:58N 26°04' W 080°07'0 0.0
2017-Oct-06 12:28N 26°04' W 080°07'0 0.0
2017-Oct-06 11:58N 26°04' W 080°07'0 0.0
2017-Oct-06 11:28N 26°04' W 080°07'0 0.0
2017-Oct-06 10:58N 26°04' W 080°07'0 0.0
2017-Oct-06 10:30N 26°04' W 080°07'0 0.3
2017-Oct-06 10:00N 26°04' W 080°07'1 2.7
2017-Oct-06 09:30N 26°06' W 080°06'4 8.4
2017-Oct-06 09:00N 26°06' W 080°02'2 4.3
2017-Oct-06 08:30N 26°05' W 079°60'4 7.1
2017-Oct-06 08:00N 26°09' W 079°59'4 8.3
2017-Oct-06 07:30N 26°13' W 079°58'4 8.3
2017-Oct-06 07:00N 26°17' W 079°57'4 8.3
2017-Oct-06 06:31N 26°21' W 079°56'4 8.3
2017-Oct-06 06:00N 26°25' W 079°55'814.8
2017-Oct-06 05:29N 26°32' W 079°54'1915.4
2017-Oct-06 04:15N 26°51' W 079°50'1214.8
2017-Oct-06 03:28N 27°03' W 079°50'  
2017-Oct-03 13:10N 36°51' W 075°52'316.4
2017-Oct-03 13:00N 36°53' W 075°54'613.0
2017-Oct-03 12:30N 36°57' W 075°60'713.3
2017-Oct-03 12:00N 37°03' W 076°04'5417.0
2017-Oct-03 08:51N 37°56' W 076°11'5018.0
2017-Oct-03 06:05N 38°45' W 076°26'117.9
2017-Oct-03 06:00N 38°46' W 076°26'917.9
2017-Oct-03 05:31N 38°55' W 076°23'815.1
2017-Oct-03 05:01N 39°02' W 076°23'713.8
2017-Oct-03 04:30N 39°09' W 076°25'611.3
2017-Oct-03 04:00N 39°12' W 076°31'3 6.7
2017-Oct-03 03:30N 39°15' W 076°33'0 0.0
2017-Oct-03 02:55N 39°15' W 076°33'0 0.0
2017-Oct-03 02:28N 39°15' W 076°33'0 0.0
2017-Oct-03 01:49N 39°15' W 076°33'0 0.0
2017-Oct-03 01:28N 39°15' W 076°33'0 0.0
2017-Oct-03 00:58N 39°15' W 076°33'0 0.0
2017-Oct-03 00:28N 39°15' W 076°33'0 0.0
2017-Oct-02 23:58N 39°15' W 076°33'0 0.0
2017-Oct-02 23:28N 39°15' W 076°33'0 0.0
2017-Oct-02 22:58N 39°15' W 076°33'0 0.0
2017-Oct-02 22:28N 39°15' W 076°33'0 0.0
2017-Oct-02 21:58N 39°15' W 076°33'0 0.0
2017-Oct-02 21:22N 39°15' W 076°33'0 0.0
2017-Oct-02 20:58N 39°15' W 076°33'0 0.0
2017-Oct-02 20:28N 39°15' W 076°33'0 0.0
2017-Oct-02 19:58N 39°15' W 076°33'0 0.0
2017-Oct-02 19:28N 39°15' W 076°33'0 0.0
2017-Oct-02 18:52N 39°15' W 076°33'0 0.0
2017-Oct-02 18:28N 39°15' W 076°33'0 0.0
2017-Oct-02 17:59N 39°15' W 076°33'0 0.0
2017-Oct-02 17:29N 39°15' W 076°33'0 0.0
2017-Oct-02 16:53N 39°15' W 076°33'0 0.0
2017-Oct-02 16:29N 39°15' W 076°33'0 0.0
2017-Oct-02 15:59N 39°15' W 076°33'0 0.0
2017-Oct-02 15:29N 39°15' W 076°33'0 0.0
2017-Oct-02 14:55N 39°15' W 076°33'0 0.0
2017-Oct-02 14:29N 39°15' W 076°33'0 0.0
2017-Oct-02 13:53N 39°15' W 076°33'0 0.0
2017-Oct-02 13:29N 39°15' W 076°33'0 0.0
2017-Oct-02 12:59N 39°15' W 076°33'0 0.0
2017-Oct-02 12:29N 39°15' W 076°33'0 0.0
2017-Oct-02 11:59N 39°15' W 076°33'0 0.0
2017-Oct-02 11:29N 39°15' W 076°33'0 0.0
2017-Oct-02 10:59N 39°15' W 076°33'0 0.0
2017-Oct-02 10:29N 39°15' W 076°33'0 0.0
2017-Oct-02 09:59N 39°15' W 076°33'0 0.0
2017-Oct-02 09:29N 39°15' W 076°33'0 0.0
2017-Oct-02 08:59N 39°15' W 076°33'0 0.0
2017-Oct-02 08:29N 39°15' W 076°33'0 0.0
2017-Oct-02 07:59N 39°15' W 076°33'0 0.0
2017-Oct-02 07:29N 39°15' W 076°33'0 0.1
2017-Oct-02 07:01N 39°15' W 076°33'2 4.0
2017-Oct-02 06:30N 39°13' W 076°32'4 8.6
2017-Oct-02 06:01N 39°11' W 076°27'612.0
2017-Oct-02 05:30N 39°06' W 076°24'713.0
2017-Oct-02 05:00N 38°59' W 076°23'817.0
2017-Oct-02 04:31N 38°51' W 076°24'917.7
2017-Oct-02 04:00N 38°42' W 076°26'10617.5
2017-Oct-01 21:58N 36°58' W 075°60'511.3
2017-Oct-01 21:30N 36°55' W 075°55'5 9.7
2017-Oct-01 21:00N 36°52' W 075°50'17515.4
2017-Oct-01 09:38N 39°24' W 074°00'218.2
2017-Oct-01 09:30N 39°26' W 073°59'918.2
2017-Oct-01 09:00N 39°34' W 073°54'1418.0
2017-Oct-01 08:15N 39°48' W 073°51'3617.8
2017-Oct-01 06:14N 40°23' W 073°49'1012.2
2017-Oct-01 05:23N 40°31' W 073°58'512.7
2017-Oct-01 05:00N 40°35' W 074°02'5 9.9
2017-Oct-01 04:30N 40°39' W 074°05'3 6.1
2017-Oct-01 04:00N 40°39' W 074°09'2 3.1
2017-Oct-01 03:29N 40°39' W 074°11'0 0.2
2017-Oct-01 02:57N 40°39' W 074°11'6 0.2
2017-Sep-30 01:59N 40°37' W 074°03'0 0.0
2017-Sep-30 01:29N 40°37' W 074°03'0 0.0
2017-Sep-30 00:59N 40°37' W 074°03'0 0.0
2017-Sep-30 00:29N 40°37' W 074°03'0 0.0
2017-Sep-29 23:59N 40°37' W 074°03'0 0.1
2017-Sep-29 23:23N 40°37' W 074°03'0 0.1
2017-Sep-29 22:59N 40°37' W 074°03'0 0.4
2017-Sep-29 22:29N 40°37' W 074°03'0 0.2
2017-Sep-29 21:59N 40°37' W 074°03'0 0.1
2017-Sep-29 21:29N 40°37' W 074°03'0 0.0
2017-Sep-29 20:53N 40°37' W 074°03'0 0.0
2017-Sep-29 20:14N 40°37' W 074°03'0 0.0
2017-Sep-29 19:50N 40°37' W 074°03'0 0.0
2017-Sep-29 19:26N 40°37' W 074°03'0 0.0
2017-Sep-29 17:50N 40°37' W 074°03'0 0.1
2017-Sep-29 17:20N 40°37' W 074°03'0 0.2
2017-Sep-29 16:59N 40°37' W 074°03'0 0.4
2017-Sep-29 16:26N 40°37' W 074°03'0 0.1
2017-Sep-29 16:00N 40°37' W 074°03'2 4.4
2017-Sep-29 15:30N 40°35' W 074°02'813.6
2017-Sep-29 14:53N 40°29' W 073°54'512.1
2017-Sep-29 14:30N 40°28' W 073°48'17320.3
2017-Sep-29 06:00N 38°12' W 076°06'   320 / 141014.010.8 19.510.018.6
Track history (hours):
 
Tides and Currents Weather Stations Pressure Air Temp Water Temp Dewpoint Dewpoint Depression Visibility Wind Speed Wind Dir Waves Ship Positions

Dublin Express

Last reported at 2017-Oct-07 01:47 UTC. Time now 2017-Oct-18 06:10 UTC.
Position N 25°29' W 079°50'.
Warning: this ship's position is 11 days out of date.

Length 281 m; beam 32 m; draft 13 m.

MMSI: 218023000.

Date/timePositionNaut miles runAvg speedWind from/ knotsBaromVisibWave heightAir tempDewpointWater temp
2017-Oct-07 01:47N 25°29' W 079°50'519.2
2017-Oct-07 01:30N 25°34' W 079°51'1019.1
2017-Oct-07 01:00N 25°43' W 079°54'1019.6
2017-Oct-07 00:31N 25°53' W 079°57'918.5
2017-Oct-07 00:01N 26°01' W 080°02'612.2
2017-Oct-06 23:30N 26°06' W 080°06'2 2.6
2017-Oct-06 22:49N 26°04' W 080°07'0 0.0
2017-Oct-06 22:27N 26°04' W 080°07'0 0.0
2017-Oct-06 21:55N 26°04' W 080°07'0 0.0
2017-Oct-06 21:27N 26°04' W 080°07'0 0.0
2017-Oct-06 20:57N 26°04' W 080°07'0 0.0
2017-Oct-06 20:22N 26°04' W 080°07'0 0.0
2017-Oct-06 19:52N 26°04' W 080°07'0 0.0
2017-Oct-06 19:25N 26°04' W 080°07'0 0.0
2017-Oct-06 18:58N 26°04' W 080°07'0 0.0
2017-Oct-06 18:22N 26°04' W 080°07'0 0.0
2017-Oct-06 17:55N 26°04' W 080°07'0 0.0
2017-Oct-06 17:28N 26°04' W 080°07'0 0.0
2017-Oct-06 16:58N 26°04' W 080°07'0 0.0
2017-Oct-06 16:25N 26°04' W 080°07'0 0.0
2017-Oct-06 15:58N 26°04' W 080°07'0 0.0
2017-Oct-06 15:28N 26°04' W 080°07'0 0.0
2017-Oct-06 14:58N 26°04' W 080°07'0 0.0
2017-Oct-06 14:28N 26°04' W 080°07'0 0.0
2017-Oct-06 13:58N 26°04' W 080°07'0 0.0
2017-Oct-06 13:28N 26°04' W 080°07'0 0.0
2017-Oct-06 12:58N 26°04' W 080°07'0 0.0
2017-Oct-06 12:28N 26°04' W 080°07'0 0.0
2017-Oct-06 11:58N 26°04' W 080°07'0 0.0
2017-Oct-06 11:28N 26°04' W 080°07'0 0.0
2017-Oct-06 10:58N 26°04' W 080°07'0 0.0
2017-Oct-06 10:30N 26°04' W 080°07'0 0.3
2017-Oct-06 10:00N 26°04' W 080°07'1 2.7
2017-Oct-06 09:30N 26°06' W 080°06'4 8.4
2017-Oct-06 09:00N 26°06' W 080°02'2 4.3
2017-Oct-06 08:30N 26°05' W 079°60'4 7.1
2017-Oct-06 08:00N 26°09' W 079°59'4 8.3
2017-Oct-06 07:30N 26°13' W 079°58'4 8.3
2017-Oct-06 07:00N 26°17' W 079°57'4 8.3
2017-Oct-06 06:31N 26°21' W 079°56'4 8.3
2017-Oct-06 06:00N 26°25' W 079°55'814.8
2017-Oct-06 05:29N 26°32' W 079°54'1915.4
2017-Oct-06 04:15N 26°51' W 079°50'1214.8
2017-Oct-06 03:28N 27°03' W 079°50'  
2017-Oct-03 13:10N 36°51' W 075°52'316.4
2017-Oct-03 13:00N 36°53' W 075°54'613.0
2017-Oct-03 12:30N 36°57' W 075°60'713.3
2017-Oct-03 12:00N 37°03' W 076°04'5417.0
2017-Oct-03 08:51N 37°56' W 076°11'5018.0
2017-Oct-03 06:05N 38°45' W 076°26'117.9
2017-Oct-03 06:00N 38°46' W 076°26'917.9
2017-Oct-03 05:31N 38°55' W 076°23'815.1
2017-Oct-03 05:01N 39°02' W 076°23'713.8
2017-Oct-03 04:30N 39°09' W 076°25'611.3
2017-Oct-03 04:00N 39°12' W 076°31'3 6.7
2017-Oct-03 03:30N 39°15' W 076°33'0 0.0
2017-Oct-03 02:55N 39°15' W 076°33'0 0.0
2017-Oct-03 02:28N 39°15' W 076°33'0 0.0
2017-Oct-03 01:49N 39°15' W 076°33'0 0.0
2017-Oct-03 01:28N 39°15' W 076°33'0 0.0
2017-Oct-03 00:58N 39°15' W 076°33'0 0.0
2017-Oct-03 00:28N 39°15' W 076°33'0 0.0
2017-Oct-02 23:58N 39°15' W 076°33'0 0.0
2017-Oct-02 23:28N 39°15' W 076°33'0 0.0
2017-Oct-02 22:58N 39°15' W 076°33'0 0.0
2017-Oct-02 22:28N 39°15' W 076°33'0 0.0
2017-Oct-02 21:58N 39°15' W 076°33'0 0.0
2017-Oct-02 21:22N 39°15' W 076°33'0 0.0
2017-Oct-02 20:58N 39°15' W 076°33'0 0.0
2017-Oct-02 20:28N 39°15' W 076°33'0 0.0
2017-Oct-02 19:58N 39°15' W 076°33'0 0.0
2017-Oct-02 19:28N 39°15' W 076°33'0 0.0
2017-Oct-02 18:52N 39°15' W 076°33'0 0.0
2017-Oct-02 18:28N 39°15' W 076°33'0 0.0
2017-Oct-02 17:59N 39°15' W 076°33'0 0.0
2017-Oct-02 17:29N 39°15' W 076°33'0 0.0
2017-Oct-02 16:53N 39°15' W 076°33'0 0.0
2017-Oct-02 16:29N 39°15' W 076°33'0 0.0
2017-Oct-02 15:59N 39°15' W 076°33'0 0.0
2017-Oct-02 15:29N 39°15' W 076°33'0 0.0
2017-Oct-02 14:55N 39°15' W 076°33'0 0.0
2017-Oct-02 14:29N 39°15' W 076°33'0 0.0
2017-Oct-02 13:53N 39°15' W 076°33'0 0.0
2017-Oct-02 13:29N 39°15' W 076°33'0 0.0
2017-Oct-02 12:59N 39°15' W 076°33'0 0.0
2017-Oct-02 12:29N 39°15' W 076°33'0 0.0
2017-Oct-02 11:59N 39°15' W 076°33'0 0.0
2017-Oct-02 11:29N 39°15' W 076°33'0 0.0
2017-Oct-02 10:59N 39°15' W 076°33'0 0.0
2017-Oct-02 10:29N 39°15' W 076°33'0 0.0
2017-Oct-02 09:59N 39°15' W 076°33'0 0.0
2017-Oct-02 09:29N 39°15' W 076°33'0 0.0
2017-Oct-02 08:59N 39°15' W 076°33'0 0.0
2017-Oct-02 08:29N 39°15' W 076°33'0 0.0
2017-Oct-02 07:59N 39°15' W 076°33'0 0.0
2017-Oct-02 07:29N 39°15' W 076°33'0 0.1
2017-Oct-02 07:01N 39°15' W 076°33'2 4.0
2017-Oct-02 06:30N 39°13' W 076°32'4 8.6
2017-Oct-02 06:01N 39°11' W 076°27'612.0
2017-Oct-02 05:30N 39°06' W 076°24'713.0
2017-Oct-02 05:00N 38°59' W 076°23'817.0
2017-Oct-02 04:31N 38°51' W 076°24'917.7
2017-Oct-02 04:00N 38°42' W 076°26'10617.5
2017-Oct-01 21:58N 36°58' W 075°60'511.3
2017-Oct-01 21:30N 36°55' W 075°55'5 9.7
2017-Oct-01 21:00N 36°52' W 075°50'17515.4
2017-Oct-01 09:38N 39°24' W 074°00'218.2
2017-Oct-01 09:30N 39°26' W 073°59'918.2
2017-Oct-01 09:00N 39°34' W 073°54'1418.0
2017-Oct-01 08:15N 39°48' W 073°51'3617.8
2017-Oct-01 06:14N 40°23' W 073°49'1012.2
2017-Oct-01 05:23N 40°31' W 073°58'512.7
2017-Oct-01 05:00N 40°35' W 074°02'5 9.9
2017-Oct-01 04:30N 40°39' W 074°05'3 6.1
2017-Oct-01 04:00N 40°39' W 074°09'2 3.1
2017-Oct-01 03:29N 40°39' W 074°11'0 0.2
2017-Oct-01 02:57N 40°39' W 074°11'6 0.2
2017-Sep-30 01:59N 40°37' W 074°03'0 0.0
2017-Sep-30 01:29N 40°37' W 074°03'0 0.0
2017-Sep-30 00:59N 40°37' W 074°03'0 0.0
2017-Sep-30 00:29N 40°37' W 074°03'0 0.0
2017-Sep-29 23:59N 40°37' W 074°03'0 0.1
2017-Sep-29 23:23N 40°37' W 074°03'0 0.1
2017-Sep-29 22:59N 40°37' W 074°03'0 0.4
2017-Sep-29 22:29N 40°37' W 074°03'0 0.2
2017-Sep-29 21:59N 40°37' W 074°03'0 0.1
2017-Sep-29 21:29N 40°37' W 074°03'0 0.0
2017-Sep-29 20:53N 40°37' W 074°03'0 0.0
2017-Sep-29 20:14N 40°37' W 074°03'0 0.0
2017-Sep-29 19:50N 40°37' W 074°03'0 0.0
2017-Sep-29 19:26N 40°37' W 074°03'0 0.0
2017-Sep-29 17:50N 40°37' W 074°03'0 0.1
2017-Sep-29 17:20N 40°37' W 074°03'0 0.2
2017-Sep-29 16:59N 40°37' W 074°03'0 0.4
2017-Sep-29 16:26N 40°37' W 074°03'0 0.1
2017-Sep-29 16:00N 40°37' W 074°03'2 4.4
2017-Sep-29 15:30N 40°35' W 074°02'813.6
2017-Sep-29 14:53N 40°29' W 073°54'512.1
2017-Sep-29 14:30N 40°28' W 073°48'17320.3
2017-Sep-29 06:00N 38°12' W 076°06'   320 / 141014.010.8 19.510.018.6

Dump ship's entire track history